Flight Track Log - Related Links

Times and Time Zones

All times are in EDT time to prevent confusion due to time zone crossing. See the N996JS flight status page for this flight to view local times or setup timezone preferences in your user account.

Time Position Orientation Groundspeed Altitude Reporting Facility
EDT Latitude Longitude Course Direction KTS MPH feet Rate Location/Type
Fri 06:26:59 PM 28.3667 -81.3333 192° South 249 287 5,100  Level Orlando TRACON
Fri 06:27:59 PM 28.3333 -81.4000 240° Southwest 243 280 9,900 3,421 Climbing Orlando TRACON
Fri 06:29:00 PM 28.3333 -81.4833 270° West 293 337 12,000 589 Climbing Orlando TRACON
Fri 06:31:33 PM 28.3000 -81.7333 261° West 283 326 12,000  Level Tampa TRACON
Fri 06:32:33 PM 28.2833 -81.8167 257° West 290 334 12,000  Level Tampa TRACON
Fri 06:33:33 PM 28.2667 -81.9167 259° West 299 344 12,000 -600 Level Tampa TRACON
Fri 06:34:33 PM 28.2500 -82.0000 257° West 299 344 10,800 -1,400 Descending Tampa TRACON
Fri 06:35:33 PM 28.2333 -82.0833 257° West 269 310 9,200 -1,579 Descending Tampa TRACON
Fri 06:36:27 PM 28.2167 -82.1667 257° West 255 293 7,800 -1,579 Descending Tampa TRACON
Fri 06:37:27 PM 28.2000 -82.2500 257° West 266 306 6,200 -1,500 Descending Tampa TRACON
Fri 06:38:27 PM 28.1833 -82.3167 254° West 265 305 4,800 -1,450 Descending Tampa TRACON
Fri 06:39:27 PM 28.1667 -82.4000 257° West 257 296 3,300 -900 Descending Tampa TRACON
Fri 06:40:27 PM 28.1667 -82.4833 270° West 258 297 3,000 -150 Descending Tampa TRACON
Fri 06:41:27 PM 28.1667 -82.5667 270° West 266 306 3,000  Level Tampa TRACON
Fri 06:42:27 PM 28.1667 -82.6333 270° West 201 231 3,000  Level Tampa TRACON
Fri 06:43:27 PM 28.1500 -82.6833 249° West 150 173 3,000 -150 Level Tampa TRACON
Fri 06:44:27 PM 28.1167 -82.7000 204° Southwest 157 181 2,700 -400 Descending Tampa TRACON
Fri 06:45:27 PM 28.0667 -82.7167 196° South 159 183 2,200 -474 Descending Tampa TRACON
Fri 06:46:21 PM 28.0167 -82.7167 180° South 159 183 1,800 -500 Descending Tampa TRACON
Fri 06:47:27 PM 27.9833 -82.7000 156° South 139 160 1,200 -614 Descending Tampa TRACON
Fri 06:48:28 PM 27.9500 -82.7000 180° South 128 147 500 -689 Descending Tampa TRACON
Fri 06:50:00 PM 27.9100 -82.6875 North  Level Estimated

Login

Don't have an account? Register now (free) for customized features, flight alerts, and more!